Time;durP1;ratioP1;P1;durP2;ratioP2;P2;SDS_P1;SDS_P2;PMS_P1;PMS_P2;Temp;Humidity;BMP_temperature;BMP_pressure;BME280_temperature;BME280_humidity;BME280_pressure;Samples;Min_cycle;Max_cycle;Signal;HPM_P1;HPM_P2
2023/03/04 00:01:49;;;;;;;15.20;9.43;;;6.90;99.90;;;;;;5033805;28;20187;-77
2023/03/04 00:04:16;;;;;;;16.13;8.50;;;6.90;99.90;;;;;;5037330;28;20214;-78
2023/03/04 00:06:41;;;;;;;24.47;9.13;;;6.90;99.90;;;;;;5043020;28;20182;-78
2023/03/04 00:09:07;;;;;;;12.93;8.87;;;6.90;99.90;;;;;;5049592;28;20432;-80
2023/03/04 00:11:33;;;;;;;13.43;8.33;;;6.90;99.90;;;;;;5048943;28;20525;-80
2023/03/04 00:13:58;;;;;;;17.03;7.90;;;6.90;99.90;;;;;;5043521;28;20191;-81
2023/03/04 00:16:27;;;;;;;16.90;7.63;;;6.90;99.90;;;;;;5037158;28;20214;-81
2023/03/04 00:18:54;;;;;;;21.43;8.17;;;6.90;99.90;;;;;;5033715;28;20716;-81
2023/03/04 00:21:20;;;;;;;18.63;6.97;;;6.90;99.90;;;;;;5038958;28;20516;-81
2023/03/04 00:23:45;;;;;;;13.07;7.47;;;6.90;99.90;;;;;;5044659;28;20556;-80
2023/03/04 00:26:12;;;;;;;17.47;7.50;;;6.90;99.90;;;;;;5050394;28;20183;-80
2023/03/04 00:28:38;;;;;;;23.03;8.10;;;6.90;99.90;;;;;;5047282;28;20636;-78
2023/03/04 00:31:05;;;;;;;13.80;6.47;;;6.90;99.90;;;;;;5041562;28;20896;-78
2023/03/04 00:33:30;;;;;;;13.07;6.80;;;6.90;99.90;;;;;;5034912;28;20477;-77
2023/03/04 00:35:56;;;;;;;15.00;6.73;;;6.90;99.90;;;;;;5034278;28;20454;-79
2023/03/04 00:38:21;;;;;;;18.23;6.30;;;6.90;99.90;;;;;;5040058;28;20194;-79
2023/03/04 00:40:47;;;;;;;11.63;6.47;;;6.90;99.90;;;;;;5046445;28;20179;-80
2023/03/04 00:43:12;;;;;;;12.70;5.60;;;6.90;99.90;;;;;;5050436;28;20197;-81
2023/03/04 00:45:38;;;;;;;11.50;5.03;;;6.90;99.90;;;;;;5045709;28;20187;-78
2023/03/04 00:48:04;;;;;;;13.73;7.33;;;6.90;99.90;;;;;;5040070;28;20191;-77
2023/03/04 00:50:29;;;;;;;9.90;5.90;;;7.00;99.90;;;;;;5033503;28;20233;-77
2023/03/04 00:52:55;;;;;;;17.40;5.10;;;6.90;99.90;;;;;;5036003;28;20187;-77
2023/03/04 00:55:20;;;;;;;13.27;5.63;;;7.00;99.90;;;;;;5041256;28;20187;-77
2023/03/04 00:57:46;;;;;;;15.83;6.33;;;7.00;99.90;;;;;;5047284;28;20203;-77
2023/03/04 01:00:12;;;;;;;9.23;4.97;;;7.00;99.90;;;;;;5049501;28;20187;-77
2023/03/04 01:02:37;;;;;;;14.63;5.27;;;7.00;99.90;;;;;;5043770;28;20197;-77
2023/03/04 01:05:04;;;;;;;14.20;5.17;;;7.00;99.90;;;;;;5038343;28;20525;-76
2023/03/04 01:07:29;;;;;;;15.27;6.07;;;7.00;99.90;;;;;;5032812;28;20641;-76
2023/03/04 01:09:55;;;;;;;15.63;5.27;;;7.00;99.90;;;;;;5037269;28;20467;-73
2023/03/04 01:12:20;;;;;;;10.50;5.00;;;7.00;99.90;;;;;;5042553;28;20190;-76
2023/03/04 01:14:46;;;;;;;17.77;4.87;;;7.00;99.90;;;;;;5048911;28;20183;-75
2023/03/04 01:17:11;;;;;;;13.70;4.90;;;7.00;99.90;;;;;;5046762;28;20240;-77
2023/03/04 01:19:37;;;;;;;18.70;5.20;;;7.00;99.90;;;;;;5042467;28;20184;-77
2023/03/04 01:22:03;;;;;;;16.97;4.70;;;7.00;99.90;;;;;;5036942;28;20184;-77
2023/03/04 01:24:29;;;;;;;21.20;5.60;;;7.00;99.90;;;;;;5033126;28;20233;-77
2023/03/04 01:26:55;;;;;;;11.73;5.37;;;7.00;99.90;;;;;;5038573;28;20591;-77
2023/03/04 01:29:21;;;;;;;15.47;5.30;;;7.00;99.90;;;;;;5043940;28;20468;-77
2023/03/04 01:31:46;;;;;;;15.40;4.63;;;7.00;99.90;;;;;;5045542;28;20224;-75
2023/03/04 01:34:12;;;;;;;11.57;4.73;;;7.00;99.90;;;;;;5036988;28;20465;-76
2023/03/04 01:36:37;;;;;;;17.97;5.97;;;6.90;99.90;;;;;;5040568;28;20207;-76
2023/03/04 01:39:03;;;;;;;16.90;5.20;;;7.00;99.90;;;;;;5035137;28;20183;-76
2023/03/04 01:41:29;;;;;;;18.43;5.43;;;7.00;99.90;;;;;;5034098;28;20230;-76
2023/03/04 01:43:57;;;;;;;19.83;5.00;;;7.00;99.90;;;;;;5039673;28;20419;-76
2023/03/04 01:46:23;;;;;;;17.10;4.70;;;7.00;99.90;;;;;;5045534;28;20182;-76
2023/03/04 01:48:49;;;;;;;13.83;5.47;;;7.00;99.90;;;;;;5033051;28;20438;-76
2023/03/04 01:51:17;;;;;;;16.03;4.57;;;7.00;99.90;;;;;;5037424;28;20521;-75
2023/03/04 01:53:45;;;;;;;9.97;4.03;;;7.00;99.90;;;;;;5043553;28;20437;-76
2023/03/04 01:56:49;;;;;;;18.10;4.10;;;7.00;99.90;;;;;;5037527;28;20457;-75
2023/03/04 01:59:17;;;;;;;9.70;4.53;;;7.00;99.90;;;;;;4975756;28;20954;-75
2023/03/04 02:01:45;;;;;;;10.77;4.00;;;7.00;99.90;;;;;;5030346;28;20434;-76
2023/03/04 02:04:11;;;;;;;14.73;4.30;;;7.00;99.90;;;;;;5036702;28;20476;-77
2023/03/04 02:06:39;;;;;;;15.80;5.47;;;7.00;99.90;;;;;;5038116;28;21152;-78
2023/03/04 02:09:05;;;;;;;9.10;3.53;;;7.00;99.90;;;;;;5044361;28;20422;-78
2023/03/04 02:11:31;;;;;;;20.70;4.77;;;7.00;99.90;;;;;;5038656;28;20426;-78
2023/03/04 02:13:58;;;;;;;15.60;3.60;;;7.00;99.90;;;;;;5036283;28;20430;-77
2023/03/04 02:16:23;;;;;;;10.43;4.60;;;7.00;99.90;;;;;;5041512;28;20873;-79
2023/03/04 02:18:49;;;;;;;15.40;4.40;;;7.00;99.90;;;;;;5047784;28;20575;-78
2023/03/04 02:21:21;;;;;;;13.93;4.10;;;7.00;99.90;;;;;;5052561;28;20187;-79
2023/03/04 02:23:57;;;;;;;22.57;5.40;;;7.00;99.90;;;;;;5048144;28;20269;-79
2023/03/04 02:26:25;;;;;;;13.47;4.60;;;7.10;99.90;;;;;;5046303;28;20563;-79
2023/03/04 02:28:53;;;;;;;20.20;4.80;;;7.10;99.90;;;;;;5052415;28;20432;-76
2023/03/04 02:31:24;;;;;;;16.27;4.20;;;7.10;99.90;;;;;;5049436;28;20829;-77
2023/03/04 02:33:51;;;;;;;17.07;5.17;;;7.10;99.90;;;;;;5042940;28;20434;-76
2023/03/04 02:36:17;;;;;;;14.50;4.00;;;7.10;99.90;;;;;;5036825;28;20967;-77
2023/03/04 02:38:42;;;;;;;18.90;3.97;;;7.00;99.90;;;;;;5036088;28;20424;-76
2023/03/04 02:41:17;;;;;;;12.73;4.87;;;7.00;99.90;;;;;;5041977;28;20175;-76
2023/03/04 02:43:45;;;;;;;10.80;3.70;;;7.00;99.90;;;;;;5047996;28;20220;-76
2023/03/04 02:46:12;;;;;;;11.67;3.80;;;7.00;99.90;;;;;;5052122;28;20438;-76
2023/03/04 02:48:38;;;;;;;13.27;5.07;;;7.00;99.90;;;;;;5047241;28;20430;-76
2023/03/04 02:51:03;;;;;;;11.00;4.37;;;7.10;99.90;;;;;;5041397;28;20437;-79
2023/03/04 02:53:29;;;;;;;17.53;3.77;;;7.00;99.90;;;;;;5035771;28;20192;-78
2023/03/04 02:55:54;;;;;;;16.00;4.10;;;7.00;99.90;;;;;;5038106;28;20698;-78
2023/03/04 02:58:20;;;;;;;14.10;3.70;;;7.00;99.90;;;;;;5043676;28;20676;-78
2023/03/04 03:00:46;;;;;;;19.30;4.90;;;7.00;99.90;;;;;;5049056;28;20175;-75
2023/03/04 03:03:11;;;;;;;15.43;3.60;;;7.00;99.90;;;;;;5050834;28;20219;-74
2023/03/04 03:05:37;;;;;;;16.10;4.57;;;7.00;99.90;;;;;;5045567;28;20245;-75
2023/03/04 03:08:03;;;;;;;16.87;4.20;;;7.00;99.90;;;;;;5047372;28;20702;-74
2023/03/04 03:10:29;;;;;;;20.37;4.70;;;7.00;99.90;;;;;;5050097;28;20516;-74
2023/03/04 03:12:55;;;;;;;10.10;4.60;;;7.00;99.90;;;;;;5047168;28;20436;-75
2023/03/04 03:15:21;;;;;;;17.90;5.70;;;7.00;99.90;;;;;;5041625;28;20238;-75
2023/03/04 03:17:46;;;;;;;15.37;4.20;;;7.00;99.90;;;;;;5051056;28;20202;-74
2023/03/04 03:20:12;;;;;;;9.87;3.73;;;7.00;99.90;;;;;;5049023;28;20262;-74
2023/03/04 05:30:21;;;;;;;17.00;3.83;;;7.10;99.90;;;;;;6064871;23;20500;-77
2023/03/04 05:32:47;;;;;;;22.90;5.63;;;7.10;99.90;;;;;;5046228;28;20449;-77
2023/03/04 05:35:12;;;;;;;11.13;4.27;;;7.10;99.90;;;;;;5061469;28;20588;-78
2023/03/04 05:37:38;;;;;;;11.60;3.30;;;7.10;99.90;;;;;;5069100;28;20610;-80
2023/03/04 05:40:04;;;;;;;16.07;3.63;;;7.10;99.90;;;;;;5071175;28;20517;-79
2023/03/04 05:42:30;;;;;;;6.77;2.33;;;7.10;99.90;;;;;;5064268;28;20243;-78
2023/03/04 05:44:55;;;;;;;10.73;3.83;;;7.10;99.90;;;;;;5058678;28;20857;-76
2023/03/04 05:47:21;;;;;;;13.63;3.73;;;7.20;99.90;;;;;;5058792;28;20221;-75
2023/03/04 05:49:47;;;;;;;10.20;3.00;;;7.20;99.90;;;;;;5064295;28;20185;-76
2023/03/04 05:52:12;;;;;;;13.60;3.23;;;7.10;99.90;;;;;;5070714;28;20182;-77
2023/03/04 05:54:38;;;;;;;16.03;3.20;;;7.10;99.90;;;;;;5074165;28;20186;-78
2023/03/04 05:57:03;;;;;;;7.80;3.17;;;7.10;99.90;;;;;;5051459;28;20195;-77
2023/03/04 05:59:29;;;;;;;14.30;3.60;;;7.10;99.90;;;;;;5063444;28;20179;-82
2023/03/04 06:01:55;;;;;;;12.93;3.70;;;7.10;99.90;;;;;;5071955;28;20194;-80
2023/03/04 06:04:20;;;;;;;21.63;6.30;;;7.20;99.90;;;;;;5071284;28;20181;-76
2023/03/04 06:06:46;;;;;;;10.77;3.03;;;7.20;99.90;;;;;;5065445;28;20549;-79
2023/03/04 06:09:12;;;;;;;13.63;4.33;;;7.20;99.90;;;;;;5058484;28;20171;-80
2023/03/04 06:11:38;;;;;;;14.60;3.37;;;7.20;99.90;;;;;;5070511;28;20253;-85
2023/03/04 06:14:04;;;;;;;7.80;3.00;;;7.20;99.90;;;;;;5067590;28;20434;-77
2023/03/04 06:16:30;;;;;;;9.73;3.53;;;7.20;99.90;;;;;;5060970;28;20298;-78
2023/03/04 06:18:55;;;;;;;6.40;2.93;;;7.20;99.90;;;;;;5038419;28;20191;-81
2023/03/04 06:21:21;;;;;;;16.90;3.17;;;7.20;99.90;;;;;;5060099;28;20774;-78
2023/03/04 06:23:46;;;;;;;13.60;3.10;;;7.20;99.90;;;;;;5066532;28;20181;-74
2023/03/04 06:26:14;;;;;;;8.80;3.00;;;7.20;99.90;;;;;;5072897;28;20182;-76
2023/03/04 06:28:40;;;;;;;17.00;3.30;;;7.30;99.90;;;;;;5071047;28;20233;-74
2023/03/04 06:31:06;;;;;;;6.80;2.60;;;7.30;99.90;;;;;;5065289;28;20967;-74
2023/03/04 06:33:32;;;;;;;11.03;3.30;;;7.30;99.90;;;;;;5058840;28;20433;-72
2023/03/04 06:35:57;;;;;;;10.43;3.17;;;7.30;99.90;;;;;;5056672;28;20182;-71
2023/03/04 06:38:24;;;;;;;8.10;3.10;;;7.30;99.90;;;;;;5060659;28;20270;-72
2023/03/04 06:40:50;;;;;;;11.50;4.10;;;7.40;99.90;;;;;;5068033;28;20182;-74
2023/03/04 06:43:15;;;;;;;9.13;4.47;;;7.40;99.90;;;;;;5072940;28;20523;-72
2023/03/04 06:45:41;;;;;;;14.20;3.50;;;7.40;99.90;;;;;;5064519;28;20179;-73
2023/03/04 06:48:06;;;;;;;11.30;3.43;;;7.40;99.90;;;;;;5064113;28;20204;-73
2023/03/04 06:50:32;;;;;;;9.00;3.57;;;7.40;99.90;;;;;;5057220;28;20187;-72
2023/03/04 06:52:57;;;;;;;8.87;2.83;;;7.40;99.90;;;;;;5039872;28;20175;-72
2023/03/04 06:55:23;;;;;;;10.47;4.20;;;7.40;99.90;;;;;;5063332;28;20187;-73
2023/03/04 06:57:49;;;;;;;15.80;4.10;;;7.40;99.90;;;;;;5068989;28;20225;-72
2023/03/04 07:00:16;;;;;;;6.17;4.03;;;7.40;99.90;;;;;;5072578;28;20527;-72
2023/03/04 07:02:41;;;;;;;15.93;3.40;;;7.50;99.90;;;;;;5067640;28;20189;-73
2023/03/04 07:05:09;;;;;;;10.27;3.50;;;7.40;99.90;;;;;;5061843;28;20417;-78
2023/03/04 07:07:35;;;;;;;8.73;4.40;;;7.40;99.90;;;;;;5055655;28;20202;-72
2023/03/04 07:10:00;;;;;;;11.73;5.30;;;7.40;99.90;;;;;;5058717;28;20434;-77
2023/03/04 07:12:26;;;;;;;16.03;4.47;;;7.40;99.90;;;;;;5064713;28;20224;-77
2023/03/04 07:14:51;;;;;;;15.97;4.50;;;7.40;99.90;;;;;;5070053;28;20212;-77
2023/03/04 07:17:17;;;;;;;14.07;4.57;;;7.50;99.90;;;;;;5071253;28;20207;-75
2023/03/04 07:19:43;;;;;;;13.60;3.67;;;7.50;99.90;;;;;;5065334;28;20182;-76
2023/03/04 07:22:09;;;;;;;15.03;4.77;;;7.50;99.90;;;;;;5058719;28;20179;-76
2023/03/04 07:24:34;;;;;;;8.33;4.87;;;7.50;99.90;;;;;;5055682;28;20788;-76
2023/03/04 07:27:00;;;;;;;14.27;4.27;;;7.50;99.90;;;;;;5060024;28;20178;-75
2023/03/04 07:29:25;;;;;;;7.70;3.10;;;7.50;99.90;;;;;;5065486;28;20268;-78
2023/03/04 07:31:51;;;;;;;21.83;4.47;;;7.80;99.90;;;;;;5071344;28;20237;-77
2023/03/04 07:34:17;;;;;;;9.97;3.53;;;7.90;99.90;;;;;;5068677;28;20586;-77
2023/03/04 07:36:43;;;;;;;15.20;4.78;;;7.80;99.90;;;;;;5061956;28;20522;-75
2023/03/04 07:39:11;;;;;;;20.33;3.70;;;7.80;99.90;;;;;;5057141;28;20187;-80
2023/03/04 07:41:37;;;;;;;6.90;3.17;;;7.80;99.90;;;;;;5055107;28;20494;-73
2023/03/04 07:44:04;;;;;;;9.07;3.03;;;7.70;99.90;;;;;;5060549;28;20549;-79
2023/03/04 07:46:30;;;;;;;9.43;3.23;;;7.70;99.90;;;;;;5066409;28;20277;-77
2023/03/04 07:48:56;;;;;;;6.13;3.53;;;7.70;99.90;;;;;;5064019;28;20469;-75
2023/03/04 07:51:23;;;;;;;4.33;3.17;;;7.70;99.90;;;;;;5058206;28;20240;-78
2023/03/04 07:53:52;;;;;;;13.43;3.27;;;7.70;99.90;;;;;;5063744;28;20663;-77
2023/03/04 07:56:23;;;;;;;11.23;3.63;;;7.70;99.90;;;;;;5054145;28;20555;-78
2023/03/04 07:58:52;;;;;;;7.20;3.37;;;7.70;99.90;;;;;;5055970;28;20455;-77
2023/03/04 08:01:21;;;;;;;9.40;3.13;;;7.70;99.90;;;;;;5062124;28;20830;-78
2023/03/04 08:03:46;;;;;;;16.53;5.33;;;7.70;99.90;;;;;;5060007;28;20447;-78
2023/03/04 08:06:14;;;;;;;14.43;3.83;;;7.70;99.90;;;;;;5066891;28;20425;-77
2023/03/04 08:08:41;;;;;;;10.43;3.17;;;7.70;99.90;;;;;;5068724;28;20220;-77
2023/03/04 08:11:12;;;;;;;10.23;3.80;;;7.70;99.90;;;;;;5068645;28;20432;-79
2023/03/04 08:13:38;;;;;;;15.37;4.00;;;7.80;99.90;;;;;;5065433;28;20436;-84
2023/03/04 08:16:04;;;;;;;9.00;3.47;;;7.90;99.90;;;;;;5067765;28;20420;-81
2023/03/04 08:18:30;;;;;;;7.93;3.20;;;8.00;99.90;;;;;;5070337;28;20179;-82
2023/03/04 08:20:55;;;;;;;9.70;4.30;;;8.10;99.90;;;;;;5071933;28;20788;-81
2023/03/04 08:23:21;;;;;;;15.37;3.03;;;8.30;99.90;;;;;;5068095;28;20178;-82
2023/03/04 08:25:47;;;;;;;9.53;5.03;;;8.40;99.90;;;;;;5069956;28;20174;-80
2023/03/04 08:28:13;;;;;;;7.30;3.57;;;8.50;99.90;;;;;;5066924;28;20912;-79
2023/03/04 08:30:39;;;;;;;6.43;3.10;;;8.60;99.90;;;;;;5066905;28;20234;-77
2023/03/04 08:33:05;;;;;;;8.23;3.27;;;8.60;99.90;;;;;;5069081;28;20436;-80
2023/03/04 08:35:31;;;;;;;14.87;3.10;;;8.60;99.90;;;;;;5071277;28;20992;-79
2023/03/04 08:37:57;;;;;;;7.30;2.73;;;8.60;99.90;;;;;;5062931;28;20214;-77
2023/03/04 08:40:25;;;;;;;10.97;2.87;;;8.70;99.90;;;;;;5057349;28;20504;-81
2023/03/04 08:42:50;;;;;;;5.73;2.70;;;8.70;99.90;;;;;;5063059;28;20186;-79
2023/03/04 08:45:16;;;;;;;11.27;3.30;;;8.70;99.90;;;;;;5067290;28;20440;-80
2023/03/04 08:47:42;;;;;;;11.33;2.60;;;8.70;99.90;;;;;;5067138;28;20543;-81
2023/03/04 08:50:08;;;;;;;7.93;2.77;;;8.70;99.90;;;;;;5060930;28;20182;-81
2023/03/04 08:52:34;;;;;;;14.50;2.60;;;8.70;99.90;;;;;;5066616;28;20618;-81
2023/03/04 08:54:59;;;;;;;4.53;4.10;;;8.80;99.90;;;;;;5069431;28;20456;-78
2023/03/04 08:57:25;;;;;;;6.03;2.20;;;8.80;99.90;;;;;;5065967;28;20218;-78
2023/03/04 08:59:50;;;;;;;6.50;2.87;;;8.70;99.90;;;;;;5064244;28;20187;-79
2023/03/04 09:02:16;;;;;;;8.57;3.67;;;8.70;99.90;;;;;;5069588;28;20677;-79
2023/03/04 09:04:41;;;;;;;8.30;2.93;;;8.80;99.90;;;;;;5066836;28;20645;-79
2023/03/04 09:07:08;;;;;;;5.20;2.80;;;8.70;99.90;;;;;;5068619;28;20179;-78
2023/03/04 09:09:34;;;;;;;9.60;3.03;;;8.70;99.90;;;;;;5062860;28;20186;-80
2023/03/04 09:11:59;;;;;;;6.07;3.10;;;8.70;99.90;;;;;;5064068;28;20865;-79
2023/03/04 09:14:25;;;;;;;13.83;3.90;;;8.70;99.90;;;;;;5073401;28;20512;-81
2023/03/04 09:16:51;;;;;;;9.93;4.30;;;8.70;99.90;;;;;;5073318;28;20256;-78
2023/03/04 09:19:16;;;;;;;8.77;3.93;;;8.70;99.90;;;;;;5069292;28;20592;-78
2023/03/04 09:21:42;;;;;;;17.13;3.93;;;8.80;99.90;;;;;;5066842;28;20196;-79
2023/03/04 09:24:08;;;;;;;10.90;3.53;;;8.80;99.90;;;;;;5072487;28;20663;-80
2023/03/04 09:26:33;;;;;;;9.67;4.20;;;8.80;99.90;;;;;;5069359;28;20186;-74
2023/03/04 09:29:00;;;;;;;9.20;4.80;;;8.80;99.90;;;;;;5070371;28;20178;-76
2023/03/04 09:31:26;;;;;;;10.40;4.13;;;8.80;99.90;;;;;;5072450;28;20288;-77
2023/03/04 09:33:53;;;;;;;7.00;3.03;;;8.70;99.90;;;;;;5072033;28;20884;-77
2023/03/04 09:36:19;;;;;;;9.30;3.63;;;8.80;99.90;;;;;;5069294;28;20551;-81
2023/03/04 09:38:45;;;;;;;6.23;3.00;;;8.80;99.90;;;;;;5071451;28;20571;-77
2023/03/04 09:41:34;;;;;;;5.20;2.40;;;8.80;99.90;;;;;;5069012;28;20294;-77
2023/03/04 09:44:26;;;;;;;4.20;2.97;;;8.80;99.90;;;;;;5065923;28;20835;-79
2023/03/04 09:46:53;;;;;;;3.10;2.53;;;8.80;99.90;;;;;;5062907;28;20535;-78
2023/03/04 09:49:20;;;;;;;7.97;3.30;;;8.80;99.90;;;;;;5069068;28;20470;-81
2023/03/04 09:51:52;;;;;;;4.30;2.03;;;8.70;99.90;;;;;;5057626;28;20443;-79
2023/03/04 09:54:30;;;;;;;23.03;3.60;;;8.70;99.90;;;;;;5068975;28;20412;-81
2023/03/04 09:57:21;;;;;;;5.20;2.17;;;8.90;99.90;;;;;;5067351;28;20475;-83
2023/03/04 09:59:59;;;;;;;4.50;2.90;;;8.80;99.90;;;;;;5074058;28;20454;-80
2023/03/04 10:02:50;;;;;;;6.00;3.10;;;8.80;99.90;;;;;;5070693;28;20515;-84
2023/03/04 10:05:20;;;;;;;10.30;2.83;;;8.70;99.90;;;;;;5062744;28;20503;-83
2023/03/04 10:07:54;;;;;;;6.77;2.77;;;8.60;99.90;;;;;;5041891;28;20806;-81
2023/03/04 10:10:26;;;;;;;11.73;3.87;;;8.70;99.90;;;;;;5070251;28;20425;-84
2023/03/04 10:12:52;;;;;;;10.13;3.97;;;8.60;99.90;;;;;;5071681;28;20479;-80
2023/03/04 10:15:22;;;;;;;8.80;3.83;;;8.70;99.90;;;;;;5072389;28;20412;-80
2023/03/04 10:17:53;;;;;;;9.53;3.80;;;8.60;99.90;;;;;;5058494;28;20465;-82
2023/03/04 10:20:29;;;;;;;13.97;4.30;;;8.70;99.90;;;;;;5045619;28;20839;-84
2023/03/04 10:23:08;;;;;;;9.90;4.40;;;8.70;99.90;;;;;;5059585;28;20432;-84
2023/03/04 10:25:37;;;;;;;13.43;6.20;;;8.80;99.90;;;;;;5057603;28;20436;-84
2023/03/04 10:28:16;;;;;;;11.67;4.80;;;8.80;99.90;;;;;;5063749;28;20507;-84
2023/03/04 10:31:19;;;;;;;5.80;4.53;;;8.80;99.90;;;;;;5060527;28;20461;-84
2023/03/04 10:33:44;;;;;;;9.47;4.10;;;8.80;99.90;;;;;;5057710;28;20444;-84
2023/03/04 10:36:52;;;;;;;7.60;3.30;;;8.90;99.90;;;;;;5046591;28;20920;-81
2023/03/04 10:39:33;;;;;;;8.90;3.80;;;9.00;99.90;;;;;;5051600;28;20189;-82
2023/03/04 10:42:05;;;;;;;5.07;3.43;;;9.00;99.90;;;;;;5070696;28;20435;-81
2023/03/04 10:44:33;;;;;;;9.67;4.27;;;9.10;99.90;;;;;;5070144;28;20443;-81
2023/03/04 10:46:59;;;;;;;7.20;5.00;;;9.00;99.90;;;;;;5072163;28;20417;-81
2023/03/04 10:49:27;;;;;;;10.37;5.30;;;9.10;99.90;;;;;;5059132;28;20830;-80
2023/03/04 10:52:20;;;;;;;13.23;6.50;;;9.10;99.90;;;;;;5061174;28;20422;-82
2023/03/04 10:54:54;;;;;;;7.77;4.90;;;9.10;99.90;;;;;;5067761;28;20432;-81
2023/03/04 10:57:25;;;;;;;8.80;5.70;;;9.10;99.90;;;;;;5067314;28;20479;-81
2023/03/04 11:00:02;;;;;;;7.07;5.47;;;8.90;99.90;;;;;;5067580;28;20426;-82
2023/03/04 11:02:29;;;;;;;8.93;4.97;;;8.90;99.90;;;;;;5062221;28;20440;-81
2023/03/04 11:05:14;;;;;;;10.40;5.10;;;8.90;99.90;;;;;;5067979;28;20437;-82
2023/03/04 11:07:59;;;;;;;8.23;5.07;;;8.90;99.90;;;;;;5058767;28;20435;-83
2023/03/04 11:10:30;;;;;;;6.87;5.23;;;8.80;99.90;;;;;;5070086;28;20433;-82
2023/03/04 11:13:18;;;;;;;9.80;6.10;;;8.80;99.90;;;;;;5068150;28;20441;-80
2023/03/04 11:15:51;;;;;;;7.57;4.90;;;8.80;99.90;;;;;;5067293;28;20587;-84
2023/03/04 11:18:29;;;;;;;8.70;5.03;;;8.80;99.90;;;;;;5064992;28;20543;-82
2023/03/04 11:20:56;;;;;;;9.30;5.53;;;8.70;99.90;;;;;;5064748;28;20814;-80
2023/03/04 11:23:29;;;;;;;7.20;5.40;;;8.80;99.90;;;;;;5039425;28;20494;-79
2023/03/04 11:26:00;;;;;;;10.10;5.47;;;8.80;99.90;;;;;;5069289;28;20492;-79
2023/03/04 11:28:51;;;;;;;8.57;5.23;;;8.80;99.90;;;;;;5067733;28;20425;-81
2023/03/04 11:31:26;;;;;;;8.30;5.27;;;8.80;99.90;;;;;;5064650;28;20549;-82
2023/03/04 11:34:02;;;;;;;8.63;4.47;;;8.80;99.90;;;;;;5071917;28;20424;-82
2023/03/04 11:36:58;;;;;;;7.20;4.70;;;8.80;99.90;;;;;;5069852;28;20475;-83
2023/03/04 11:39:36;;;;;;;11.17;5.57;;;8.80;99.90;;;;;;5063596;28;20429;-82
2023/03/04 11:42:32;;;;;;;8.30;5.97;;;8.80;99.90;;;;;;5060297;28;20893;-78
2023/03/04 11:44:57;;;;;;;9.63;5.47;;;8.90;99.90;;;;;;5067154;28;20174;-79
2023/03/04 11:47:55;;;;;;;7.50;4.93;;;9.00;99.90;;;;;;5067182;28;20511;-79
2023/03/04 11:50:28;;;;;;;8.90;4.70;;;9.00;99.90;;;;;;5070257;28;20622;-79
2023/03/04 11:53:15;;;;;;;7.73;4.80;;;9.00;99.90;;;;;;5056601;28;20551;-76
2023/03/04 11:55:55;;;;;;;4.60;4.00;;;9.00;99.90;;;;;;5040306;28;20417;-77
2023/03/04 11:58:36;;;;;;;11.30;4.97;;;9.00;99.90;;;;;;5046151;28;20422;-77
2023/03/04 12:01:13;;;;;;;5.17;3.97;;;9.00;99.90;;;;;;5042582;28;21143;-79
2023/03/04 12:04:01;;;;;;;6.30;4.10;;;9.00;99.90;;;;;;5043256;28;20435;-78
2023/03/04 12:06:51;;;;;;;4.40;2.97;;;8.90;99.90;;;;;;5045587;28;20441;-77
2023/03/04 12:09:23;;;;;;;3.80;3.07;;;8.90;99.90;;;;;;5045444;28;20422;-79
2023/03/04 12:12:07;;;;;;;6.33;3.50;;;8.90;99.90;;;;;;5042981;28;20461;-78
2023/03/04 12:14:48;;;;;;;5.33;3.00;;;8.90;99.90;;;;;;5043465;28;20425;-80
2023/03/04 12:17:34;;;;;;;5.00;3.00;;;8.90;99.90;;;;;;5042052;28;20549;-80
2023/03/04 12:20:28;;;;;;;5.37;3.47;;;9.00;99.90;;;;;;5039604;28;20469;-78
2023/03/04 12:23:18;;;;;;;5.40;3.00;;;9.00;99.90;;;;;;5046337;28;20436;-78
2023/03/04 12:26:15;;;;;;;4.73;3.10;;;9.10;99.90;;;;;;5045329;28;20430;-77
2023/03/04 12:28:52;;;;;;;3.93;2.70;;;9.00;99.90;;;;;;5031777;28;20529;-79
2023/03/04 12:31:20;;;;;;;4.60;3.10;;;9.10;99.90;;;;;;5045620;28;20457;-79
2023/03/04 12:34:14;;;;;;;9.20;3.63;;;9.10;99.90;;;;;;5044691;28;20521;-79
2023/03/04 12:36:51;;;;;;;7.80;3.17;;;8.90;99.90;;;;;;5040985;28;20480;-77
2023/03/04 12:39:35;;;;;;;6.47;3.13;;;9.00;99.90;;;;;;5044375;28;20434;-79
2023/03/04 12:42:19;;;;;;;4.60;3.60;;;9.10;99.90;;;;;;5043956;28;20509;-82
2023/03/04 12:45:03;;;;;;;4.33;3.40;;;9.10;99.90;;;;;;5042215;28;20421;-81
2023/03/04 12:47:50;;;;;;;7.20;3.93;;;9.00;99.90;;;;;;5045749;28;20426;-79
2023/03/04 12:50:31;;;;;;;4.20;2.90;;;9.00;99.90;;;;;;5043455;28;20939;-81
2023/03/04 12:53:10;;;;;;;7.57;3.40;;;9.00;99.90;;;;;;5041228;28;20488;-81
2023/03/04 12:55:38;;;;;;;4.83;2.53;;;9.00;99.90;;;;;;5045132;28;20434;-80
2023/03/04 12:58:12;;;;;;;5.70;3.70;;;9.00;99.90;;;;;;5045684;28;20430;-81
2023/03/04 13:01:11;;;;;;;4.23;3.20;;;9.00;99.90;;;;;;5040580;28;20437;-80
2023/03/04 13:03:52;;;;;;;3.83;3.47;;;8.90;99.90;;;;;;5028332;28;20442;-78
2023/03/04 13:06:30;;;;;;;4.20;3.10;;;8.90;99.90;;;;;;5030242;28;20625;-82
2023/03/04 13:08:58;;;;;;;6.00;4.20;;;8.90;99.90;;;;;;5027430;28;20868;-81
2023/03/04 13:11:27;;;;;;;9.03;4.17;;;8.90;99.90;;;;;;5030997;28;20543;-79
2023/03/04 13:14:17;;;;;;;8.80;4.80;;;8.90;99.90;;;;;;5028477;28;20423;-85
2023/03/04 13:16:45;;;;;;;5.97;4.60;;;8.80;99.90;;;;;;5026925;28;20446;-82
2023/03/04 13:19:43;;;;;;;8.83;5.50;;;8.90;99.90;;;;;;5027217;28;20512;-78
2023/03/04 13:22:39;;;;;;;6.13;4.43;;;8.80;99.90;;;;;;5030732;28;20435;-79
2023/03/04 13:25:43;;;;;;;8.97;5.77;;;8.80;99.90;;;;;;5027993;28;20430;-77
2023/03/04 13:28:08;;;;;;;6.60;4.47;;;8.80;99.90;;;;;;5030094;28;20944;-84
2023/03/04 13:30:34;;;;;;;7.50;5.07;;;8.80;99.90;;;;;;5030846;28;20456;-82
2023/03/04 13:33:12;;;;;;;8.30;5.40;;;8.80;99.90;;;;;;5027783;28;20231;-83
2023/03/04 13:36:00;;;;;;;8.00;5.47;;;8.80;99.90;;;;;;5029410;28;20211;-82
2023/03/04 13:38:26;;;;;;;5.30;3.97;;;8.80;99.90;;;;;;5028617;28;20438;-81
2023/03/04 13:41:15;;;;;;;7.37;4.60;;;8.80;99.90;;;;;;5026444;28;20430;-77
2023/03/04 13:43:44;;;;;;;5.90;3.80;;;8.80;99.90;;;;;;5028711;28;20587;-77
2023/03/04 13:46:19;;;;;;;6.63;4.37;;;8.70;99.90;;;;;;5027683;28;20478;-77
2023/03/04 13:48:52;;;;;;;6.43;4.40;;;8.80;99.90;;;;;;5025496;28;20454;-76
2023/03/04 13:51:40;;;;;;;6.73;3.67;;;8.80;99.90;;;;;;5027482;28;21071;-80
2023/03/04 13:54:27;;;;;;;4.70;3.07;;;8.70;99.90;;;;;;5030392;28;20439;-79
2023/03/04 13:56:59;;;;;;;4.53;3.47;;;8.70;99.90;;;;;;5028570;28;20477;-78
2023/03/04 13:59:34;;;;;;;5.80;3.20;;;8.70;99.90;;;;;;5021328;28;20788;-84
2023/03/04 14:02:15;;;;;;;5.97;4.10;;;8.70;99.90;;;;;;5023505;28;20421;-80
2023/03/04 14:04:53;;;;;;;6.07;3.67;;;8.70;99.90;;;;;;5016236;28;20938;-80
2023/03/04 14:07:25;;;;;;;6.43;4.10;;;8.80;99.90;;;;;;5026356;28;20438;-79
2023/03/04 14:10:20;;;;;;;3.90;3.13;;;8.80;99.90;;;;;;5023459;28;20423;-88
2023/03/04 14:12:55;;;;;;;5.03;3.30;;;8.80;99.90;;;;;;5023182;28;20474;-90
2023/03/04 14:15:29;;;;;;;10.53;4.50;;;8.90;99.90;;;;;;5018498;28;20439;-86
2023/03/04 14:17:57;;;;;;;5.23;3.60;;;8.90;99.90;;;;;;5023073;28;20443;-89
2023/03/04 14:20:28;;;;;;;5.80;3.50;;;8.90;99.90;;;;;;5029963;28;20438;-86
2023/03/04 14:22:54;;;;;;;7.20;3.93;;;9.00;99.90;;;;;;5020232;28;20439;-87
2023/03/04 14:25:27;;;;;;;5.60;3.57;;;8.90;99.90;;;;;;5021323;28;20435;-82
2023/03/04 14:28:15;;;;;;;5.07;3.20;;;9.00;99.90;;;;;;5027007;28;20443;-80
2023/03/04 14:30:41;;;;;;;6.97;3.90;;;9.00;99.90;;;;;;5014556;28;20443;-83
2023/03/04 14:33:13;;;;;;;5.30;2.90;;;9.00;99.90;;;;;;5019967;28;20455;-85
2023/03/04 14:35:44;;;;;;;6.30;3.50;;;9.00;99.90;;;;;;5026993;28;20418;-89
2023/03/04 14:38:36;;;;;;;12.33;3.13;;;9.00;99.90;;;;;;5019501;28;20501;-91
2023/03/04 14:41:20;;;;;;;7.63;3.40;;;9.00;99.90;;;;;;5030219;28;20841;-87
2023/03/04 14:43:51;;;;;;;6.67;3.10;;;9.00;99.90;;;;;;5021140;28;20840;-85
2023/03/04 14:46:18;;;;;;;5.67;2.90;;;9.00;99.90;;;;;;5018496;28;20473;-83
2023/03/04 14:48:49;;;;;;;6.33;3.20;;;9.10;99.90;;;;;;5018040;28;20518;-82
2023/03/04 14:51:41;;;;;;;8.93;3.50;;;9.10;99.90;;;;;;5019892;28;20479;-79
2023/03/04 14:54:36;;;;;;;7.07;3.00;;;9.10;99.90;;;;;;5029444;28;20432;-74
2023/03/04 14:57:25;;;;;;;3.77;2.77;;;9.20;99.90;;;;;;5030188;28;20440;-88
2023/03/04 14:59:51;;;;;;;5.63;3.13;;;9.20;99.90;;;;;;5021040;28;20755;-82
2023/03/04 15:02:34;;;;;;;5.70;3.57;;;9.20;99.90;;;;;;5015465;28;20427;-82
2023/03/04 15:05:14;;;;;;;9.63;4.10;;;9.20;99.90;;;;;;5016852;28;20426;-83
2023/03/04 15:07:41;;;;;;;4.23;3.10;;;9.20;99.90;;;;;;5024818;28;20433;-86
2023/03/04 15:10:13;;;;;;;3.83;2.70;;;9.20;99.90;;;;;;5027235;28;20431;-86
2023/03/04 15:12:39;;;;;;;6.10;2.93;;;9.20;99.90;;;;;;5028992;28;20891;-85
2023/03/04 15:15:31;;;;;;;5.50;2.17;;;9.10;99.90;;;;;;5023346;28;20439;-76
2023/03/04 15:17:58;;;;;;;13.13;2.57;;;9.10;99.90;;;;;;5028217;28;20184;-76
2023/03/04 15:20:27;;;;;;;11.73;5.30;;;9.10;99.90;;;;;;5014603;28;20431;-73
2023/03/04 15:22:52;;;;;;;6.30;2.50;;;9.10;99.90;;;;;;5020236;28;20926;-87